• Join FlightAware (Why Join?)
  • Login
  • US Flag 
Rudolph Flight #1: Arrived! 
10:51PM EST


 

Airport Tracker/Info


-or-


 

Live Flight TrackerFlight Track Log ✈ CTL21 ✈ 24-Jul-2013 ✈ KAZO - KBKL

Flight Track Log - Related Links

Times and Time Zones

All times are in EDT time to prevent confusion due to time zone crossing. See the CTL21 flight status page for this flight to view local times or setup timezone preferences in your user account.

Time Position Orientation Groundspeed Altitude Reporting Facility
EDT Latitude Longitude Course Direction KTS MPH feet Rate Location/Type
05:16PM 42.2431 -85.4050 121° Southeast 130 150 4,900  Level Chicago Center
05:17PM 42.2247 -85.3625 120° Southeast 131 151 5,800 780 Climbing Chicago Center
05:18PM 42.1187 -85.2825 120° Southeast  Level FlightAware Approximate
05:18PM 42.2050 -85.3214 123° Southeast 131 151 6,600  Level Chicago Center
05:19PM 42.0957 -85.2289 120° Southeast  Level FlightAware Approximate
05:19PM 42.1864 -85.2769 119° Southeast 134 154 7,100  Level Chicago Center
05:20PM 42.0738 -85.1747 117° Southeast  Level FlightAware Approximate
05:20PM 42.1619 -85.2239 122° Southeast 159 183 7,100  Level Chicago Center
05:21PM 42.1383 -85.1692 120° Southeast 143 165 8,300 840 Climbing Chicago Center
05:22PM 42.1181 -85.1253 122° Southeast 138 159 8,900 360 Climbing Chicago Center
05:23PM 42.0975 -85.0761 119° Southeast 147 169 9,100 60 Climbing Chicago Center
05:24PM 42.0728 -85.0211 121° Southeast 165 190 9,100  Level Chicago Center
05:25PM 42.0500 -84.9658 119° Southeast 168 193 9,100  Level Chicago Center
05:26PM 42.0258 -84.9114 121° Southeast 169 194 9,100  Level Chicago Center
05:27PM 41.9969 -84.8447 120° Southeast 170 196 9,100  Level Chicago Center
05:28PM 41.9728 -84.7900 121° Southeast 171 197 9,100  Level Chicago Center
05:29PM 41.9489 -84.7350 120° Southeast 171 197 9,100  Level Chicago Center
05:30PM 41.9228 -84.6808 123° Southeast 172 198 9,100  Level Chicago Center
05:31PM 41.8989 -84.6261 120° Southeast 171 197 9,100  Level Chicago Center
05:32PM 41.8742 -84.5706 121° Southeast 173 199 9,100  Level Chicago Center
05:33PM 41.8450 -84.5044 121° Southeast 172 198 9,100  Level Chicago Center
05:34PM 41.8208 -84.4483 120° Southeast 173 199 9,100  Level Chicago Center
05:35PM 41.7986 -84.3944 119° Southeast 170 196 9,100  Level Chicago Center
05:36PM 41.7744 -84.3400 121° Southeast 169 194 9,100  Level Chicago Center
05:37PM 41.7506 -84.2858 121° Southeast 169 194 9,100  Level Chicago Center
05:38PM 41.7258 -84.2311 121° Southeast 170 196 9,100  Level Chicago Center
05:39PM 41.6956 -84.1656 122° Southeast 171 197 9,100 -120 Level Chicago Center
05:41PM 41.6647 -84.1108 127° Southeast  Level FlightAware Approximate
05:48PM 41.4950 -83.7454 118° Southeast  Level FlightAware Approximate
05:49PM 41.4734 -83.6914 118° Southeast  Level FlightAware Approximate
05:50PM 41.4517 -83.6375 118° Southeast  Level FlightAware Approximate
05:51PM 41.4487 -83.5769 92° East  Level FlightAware Approximate
05:52PM 41.4473 -83.5157 92° East  Level FlightAware Approximate
05:53PM 41.4462 -83.4566 91° East  Level FlightAware Approximate
05:54PM 41.4451 -83.3975 91° East  Level FlightAware Approximate
05:55PM 41.4439 -83.3384 91° East  Level FlightAware Approximate
05:56PM 41.4428 -83.2793 91° East  Level FlightAware Approximate
05:57PM 41.4416 -83.2202 92° East  Level FlightAware Approximate
05:57PM 41.5011 -83.0839 92° East 171 197 7,100  Level Cleveland Center
05:57PM 41.4956 -83.0561 105° East 170 196 7,100  Level Cleveland Center
05:58PM 41.4403 -83.1611 92° East  Level FlightAware Approximate
05:58PM 41.4864 -82.9947 101° East 170 196 7,100  Level Cleveland Center
05:59PM 41.4391 -83.1020 92° East  Level FlightAware Approximate
05:59PM 41.4753 -82.9278 102° East 171 197 7,100  Level Cleveland Center
06:00PM 41.4378 -83.0430 92° East  Level FlightAware Approximate
06:00PM 41.4639 -82.8664 104° East 171 197 7,100  Level Cleveland Center
06:01PM 41.4365 -82.9839 92° East  Level FlightAware Approximate
06:01PM 41.4694 -82.8000 84° East 194 223 6,500  Level Cleveland Center
06:02PM 41.4351 -82.9248 92° East  Level FlightAware Approximate
06:02PM 41.4728 -82.7308 86° East 187 215 5,700  Level Cleveland Center
06:03PM 41.4803 -82.6619 82° East 188 216 5,100 -300 Descending Cleveland Center
06:04PM 41.4856 -82.6011 83° East 168 193 5,100 -120 Level Cleveland Center
06:05PM 41.4950 -82.5347 79° East 165 190 4,900 -480 Descending Cleveland Center
06:06PM 41.5025 -82.4683 81° East 190 219 4,200 -780 Descending Cleveland Center
06:07PM 41.5161 -82.4078 73° East 188 216 3,500 -660 Descending Cleveland Center
06:08PM 41.5317 -82.3417 73° East 182 209 3,000 -240 Descending Cleveland Center
06:09PM 41.5428 -82.2867 75° East 164 189 3,100  Climbing Cleveland Center
06:11PM 41.5675 -82.1678 74° East 162 186 3,100  Level Cleveland Center
06:12PM 41.5828 -82.1100 71° East 164 189 3,100  Level Cleveland Center
06:13PM 41.5961 -82.0547 72° East 163 188 3,100  Level Cleveland Center
06:14PM 41.6094 -81.9994 72° East 161 185 3,100 -60 Level Cleveland Center
06:15PM 41.6142 -81.9383 84° East 165 190 3,000 -180 Descending Cleveland Center
06:16PM 41.6044 -81.8772 102° East 181 208 2,800 -480 Descending Cleveland Center
06:17PM 41.5781 -81.8211 122° Southeast 173 199 2,100 -600 Descending Cleveland Center
06:18PM 41.5514 -81.7678 124° Southeast 168 193 1,600 -300 Descending Cleveland Center
06:19PM 41.5247 -81.7342 137° Southeast 129 148 1,600 -240 Level Cleveland Center
06:20PM 41.5019 -81.7172 151° Southeast 112 129 1,200 -360 Descending Cleveland Center
06:22PM 41.5175 -81.6833 109° East  Level Estimated
06:29PM 41.5175 -81.6833 109° East  Level Estimated